createdAt,value
2017-11-16T00:01:41.920Z,71.37
2017-11-16T00:04:11.620Z,66.50
2017-11-16T00:06:41.375Z,63.40
2017-11-16T00:09:09.981Z,65.87
2017-11-16T00:11:37.720Z,78.97
2017-11-16T00:14:05.368Z,57.22
2017-11-16T00:16:33.139Z,58.60
2017-11-16T00:19:02.714Z,69.97
2017-11-16T00:21:31.205Z,65.15
2017-11-16T00:24:00.591Z,65.70
2017-11-16T00:26:28.259Z,54.95
2017-11-16T00:28:55.925Z,55.80
2017-11-16T00:31:24.121Z,52.95
2017-11-16T00:33:51.894Z,51.63
2017-11-16T00:36:20.554Z,52.50
2017-11-16T00:38:48.184Z,49.63
2017-11-16T00:41:16.671Z,50.35
2017-11-16T00:43:44.264Z,51.80
2017-11-16T00:46:11.853Z,55.75
2017-11-16T00:48:39.479Z,62.20
2017-11-16T00:51:07.285Z,59.05
2017-11-16T00:53:34.980Z,55.08
2017-11-16T00:56:02.987Z,53.33
2017-11-16T00:58:30.621Z,58.10
2017-11-16T01:00:58.953Z,58.22
2017-11-16T01:03:26.553Z,60.17
2017-11-16T01:05:54.167Z,60.47
2017-11-16T01:08:22.814Z,51.97
2017-11-16T01:10:50.737Z,56.20
2017-11-16T01:13:18.373Z,56.33
2017-11-16T01:15:47.021Z,49.72
2017-11-16T01:18:14.682Z,46.80
2017-11-16T01:20:42.237Z,63.17
2017-11-16T01:23:09.870Z,60.30
2017-11-16T01:25:38.313Z,60.17
2017-11-16T01:28:07.042Z,57.95
2017-11-16T01:30:34.650Z,65.22
2017-11-16T01:33:02.224Z,60.45
2017-11-16T01:35:29.819Z,62.25
2017-11-16T01:37:57.378Z,51.97
2017-11-16T01:40:24.984Z,53.17
2017-11-16T01:42:52.621Z,58.97
2017-11-16T01:45:21.012Z,51.72
2017-11-16T01:47:49.405Z,52.55
2017-11-16T01:50:16.978Z,55.63
2017-11-16T01:52:44.623Z,58.50
2017-11-16T01:55:14.633Z,53.10
2017-11-16T01:57:43.113Z,55.15
2017-11-16T02:00:10.772Z,67.37
2017-11-16T02:02:40.861Z,58.15
2017-11-16T02:05:09.357Z,56.40
2017-11-16T02:07:37.168Z,58.65
2017-11-16T02:10:04.822Z,60.97
2017-11-16T02:12:32.456Z,85.53
2017-11-16T02:15:00.524Z,61.85
2017-11-16T02:17:28.140Z,65.82
2017-11-16T02:19:55.996Z,67.50
2017-11-16T02:22:23.636Z,63.05
2017-11-16T02:24:51.276Z,67.18
2017-11-16T02:27:19.111Z,67.07
2017-11-16T02:29:46.905Z,62.70
2017-11-16T02:32:14.538Z,70.93
2017-11-16T02:34:42.402Z,61.45
2017-11-16T02:37:09.993Z,69.40
2017-11-16T02:39:38.580Z,60.20
2017-11-16T02:42:06.991Z,70.47
2017-11-16T02:44:34.570Z,61.97
2017-11-16T02:47:02.206Z,57.62
2017-11-16T02:49:30.639Z,59.90
2017-11-16T02:51:58.201Z,66.72
2017-11-16T02:54:25.841Z,66.47
2017-11-16T02:56:53.460Z,57.13
2017-11-16T02:59:21.129Z,55.20
2017-11-16T03:01:48.713Z,60.53
2017-11-16T03:04:17.108Z,61.72
2017-11-16T03:06:44.756Z,61.83
2017-11-16T03:09:13.223Z,55.50
2017-11-16T03:11:41.799Z,66.97
2017-11-16T03:14:09.412Z,71.00
2017-11-16T03:16:37.814Z,64.95
2017-11-16T03:19:05.360Z,48.87
2017-11-16T03:21:33.796Z,60.28
2017-11-16T03:24:01.371Z,56.53
2017-11-16T03:26:28.976Z,59.97
2017-11-16T03:28:58.392Z,60.47
2017-11-16T03:31:25.973Z,53.92
2017-11-16T03:33:53.616Z,46.10
2017-11-16T03:36:22.014Z,54.50
2017-11-16T03:38:49.597Z,49.13
2017-11-16T03:41:17.179Z,45.45
2017-11-16T03:43:44.747Z,44.40
2017-11-16T03:46:12.530Z,49.22
2017-11-16T03:48:40.160Z,46.17
2017-11-16T03:51:08.215Z,55.40
2017-11-16T03:53:36.284Z,45.75
2017-11-16T03:56:04.663Z,43.97
2017-11-16T03:58:32.290Z,52.58
2017-11-16T04:00:59.919Z,43.35
2017-11-16T04:03:27.570Z,44.78
2017-11-16T04:05:56.684Z,53.87
2017-11-16T04:08:24.277Z,49.78
2017-11-16T04:10:51.920Z,56.45
2017-11-16T04:13:19.516Z,49.38
2017-11-16T04:15:47.102Z,48.50
2017-11-16T04:18:14.785Z,49.03
2017-11-16T04:20:42.402Z,48.00
2017-11-16T04:23:09.969Z,46.25
2017-11-16T04:25:37.553Z,46.13
2017-11-16T04:28:05.160Z,46.20
2017-11-16T04:30:32.767Z,48.30
2017-11-16T04:33:00.368Z,42.70
2017-11-16T04:35:28.774Z,45.60
2017-11-16T04:37:56.365Z,46.15
2017-11-16T04:40:24.322Z,50.55
2017-11-16T04:42:51.893Z,40.60
2017-11-16T04:45:19.489Z,42.75
2017-11-16T04:47:47.052Z,50.53
2017-11-16T04:50:14.627Z,47.22
2017-11-16T04:52:42.209Z,49.28
2017-11-16T04:55:09.780Z,38.75
2017-11-16T04:57:37.763Z,43.50
2017-11-16T05:00:06.142Z,56.75
2017-11-16T05:02:33.731Z,50.28
2017-11-16T05:05:01.299Z,50.15
2017-11-16T05:07:28.843Z,41.10
2017-11-16T05:09:56.463Z,47.25
2017-11-16T05:12:24.028Z,41.20
2017-11-16T05:14:51.850Z,44.75
2017-11-16T05:17:19.505Z,50.80
2017-11-16T05:19:47.841Z,45.90
2017-11-16T05:22:16.425Z,45.88
2017-11-16T05:24:44.098Z,45.50
2017-11-16T05:27:11.698Z,52.97
2017-11-16T05:29:40.089Z,40.30
2017-11-16T05:32:08.434Z,51.75
2017-11-16T05:34:36.036Z,46.45
2017-11-16T05:37:04.369Z,47.83
2017-11-16T05:39:31.978Z,51.85
2017-11-16T05:41:59.632Z,48.17
2017-11-16T05:44:27.266Z,41.55
2017-11-16T05:46:54.849Z,48.90
2017-11-16T05:49:22.409Z,42.10
2017-11-16T05:51:50.011Z,46.60
2017-11-16T05:54:17.605Z,49.88
2017-11-16T05:56:45.217Z,49.35
2017-11-16T05:59:12.824Z,47.92
2017-11-16T06:01:41.211Z,39.83
2017-11-16T06:04:08.823Z,51.88
2017-11-16T06:06:36.421Z,51.92
2017-11-16T06:09:03.989Z,51.05
2017-11-16T06:11:32.768Z,53.60
2017-11-16T06:14:00.346Z,52.62
2017-11-16T06:16:28.841Z,49.63
2017-11-16T06:18:56.449Z,51.22
2017-11-16T06:21:23.988Z,52.78
2017-11-16T06:23:51.593Z,52.20
2017-11-16T06:26:20.291Z,47.55
2017-11-16T06:28:47.997Z,42.95
2017-11-16T06:31:17.109Z,46.37
2017-11-16T06:33:46.925Z,51.47
2017-11-16T06:36:16.535Z,59.42
2017-11-16T06:38:44.215Z,45.90
2017-11-16T06:44:03.617Z,45.35
2017-11-16T06:46:33.246Z,50.70
2017-11-16T06:49:01.358Z,49.65
2017-11-16T06:51:30.635Z,39.75
2017-11-16T06:54:03.628Z,51.05
2017-11-16T06:56:32.387Z,45.67
2017-11-16T06:59:01.429Z,46.28
2017-11-16T07:01:31.119Z,46.83
2017-11-16T07:03:58.834Z,41.65
2017-11-16T07:06:26.461Z,49.28
2017-11-16T07:08:54.120Z,43.53
2017-11-16T07:11:22.941Z,49.85
2017-11-16T07:13:52.280Z,45.70
2017-11-16T07:16:22.250Z,37.35
2017-11-16T07:18:51.206Z,40.60
2017-11-16T12:09:30.890Z,38.72
2017-11-16T12:42:26.800Z,33.45
2017-11-16T12:57:42.618Z,32.65
2017-11-16T13:14:15.749Z,34.72
2017-11-16T13:20:08.712Z,29.45
2017-11-16T13:22:36.428Z,28.90
2017-11-16T13:27:41.774Z,35.50
2017-11-16T13:30:09.613Z,35.95
2017-11-16T13:32:38.099Z,36.80
2017-11-16T13:35:05.814Z,35.45
2017-11-16T13:37:33.583Z,33.72
2017-11-16T13:40:01.373Z,31.15
2017-11-16T13:42:28.966Z,32.70
2017-11-16T13:45:01.347Z,32.50
2017-11-16T13:47:29.345Z,32.75
2017-11-16T13:49:57.740Z,36.08
2017-11-16T13:52:25.721Z,33.88
2017-11-16T13:54:56.089Z,32.53
2017-11-16T13:59:59.602Z,37.95
2017-11-16T14:02:30.171Z,37.22
2017-11-16T14:07:55.688Z,48.10
2017-11-16T14:16:53.621Z,42.95
2017-11-16T14:19:23.216Z,38.80
2017-11-16T14:24:25.085Z,42.80
2017-11-16T14:26:53.561Z,34.88
2017-11-16T14:29:23.333Z,40.20
2017-11-16T14:31:52.105Z,45.10
2017-11-16T14:34:20.517Z,47.22
2017-11-16T14:36:48.136Z,36.40
2017-11-16T14:39:15.924Z,43.50
2017-11-16T14:41:43.505Z,40.75
2017-11-16T14:44:11.063Z,45.25
2017-11-16T14:46:41.306Z,42.65
2017-11-16T14:49:09.679Z,40.45
2017-11-16T14:51:37.233Z,42.00
2017-11-16T14:54:04.817Z,43.30
2017-11-16T14:56:32.386Z,48.97
2017-11-16T14:58:59.921Z,52.35
2017-11-16T15:01:28.522Z,48.33
2017-11-16T15:03:56.078Z,52.47
2017-11-16T15:06:23.660Z,56.83
2017-11-16T15:08:52.100Z,60.17
2017-11-16T15:11:20.089Z,53.00
2017-11-16T15:13:47.651Z,50.92
2017-11-16T15:16:15.268Z,65.62
2017-11-16T15:18:43.759Z,52.78
2017-11-16T15:21:11.552Z,54.10
2017-11-16T15:23:39.532Z,58.03
2017-11-16T15:26:08.393Z,64.85
2017-11-16T15:28:36.947Z,71.00
2017-11-16T15:31:04.520Z,61.10
2017-11-16T15:33:32.105Z,69.85
2017-11-16T15:35:59.714Z,62.17
2017-11-16T15:38:27.347Z,55.70
2017-11-16T15:40:56.035Z,62.70
2017-11-16T15:43:23.685Z,64.35
2017-11-16T15:45:51.389Z,58.17
2017-11-16T15:48:19.725Z,57.78
2017-11-16T15:50:47.296Z,55.12
2017-11-16T15:53:14.898Z,63.78
2017-11-16T15:55:42.560Z,61.67
2017-11-16T15:58:10.997Z,58.38
2017-11-16T16:00:38.606Z,55.08
2017-11-16T16:03:06.953Z,62.45
2017-11-16T16:05:34.533Z,59.47
2017-11-16T16:08:02.573Z,65.47
2017-11-16T16:10:30.134Z,63.75
2017-11-16T16:12:57.869Z,61.88
2017-11-16T16:15:26.315Z,73.25
2017-11-16T16:17:53.893Z,60.30
2017-11-16T16:20:25.480Z,59.22
2017-11-16T16:22:53.039Z,59.35
2017-11-16T16:25:21.424Z,62.30
2017-11-16T16:27:49.795Z,59.75
2017-11-16T16:30:17.740Z,62.03
2017-11-16T16:32:45.380Z,59.20
2017-11-16T16:35:13.002Z,74.43
2017-11-16T16:37:40.645Z,64.12
2017-11-16T16:40:08.294Z,53.35
2017-11-16T16:42:35.977Z,58.58
2017-11-16T16:45:03.608Z,53.10
2017-11-16T16:47:31.277Z,53.40
2017-11-16T16:49:58.911Z,57.33
2017-11-16T16:52:26.580Z,60.35
2017-11-16T16:54:54.176Z,58.83
2017-11-16T16:57:21.769Z,54.85
2017-11-16T16:59:49.420Z,58.78
2017-11-16T17:02:17.021Z,64.35
2017-11-16T17:04:44.608Z,67.65
2017-11-16T17:07:13.111Z,55.40
2017-11-16T17:09:40.702Z,70.03
2017-11-16T17:12:08.345Z,64.12
2017-11-16T17:14:36.009Z,64.05
2017-11-16T17:17:03.616Z,61.00
2017-11-16T17:19:31.278Z,66.43
2017-11-16T17:21:58.896Z,64.55
2017-11-16T17:24:27.284Z,69.57
2017-11-16T17:26:55.679Z,57.58
2017-11-16T17:29:23.342Z,60.30
2017-11-16T17:31:50.944Z,67.45
2017-11-16T17:34:18.575Z,53.65
2017-11-16T17:36:47.202Z,58.20
2017-11-16T17:39:14.823Z,56.20
2017-11-16T17:41:42.436Z,54.15
2017-11-16T17:44:10.043Z,60.65
2017-11-16T17:46:37.697Z,61.05
2017-11-16T17:49:05.315Z,53.45
2017-11-16T17:51:32.955Z,58.25
2017-11-16T17:54:00.600Z,63.90
2017-11-16T17:56:29.043Z,69.97
2017-11-16T17:58:56.663Z,58.72
2017-11-16T18:01:25.099Z,67.72
2017-11-16T18:03:52.781Z,51.67
2017-11-16T18:06:20.444Z,67.35
2017-11-16T18:08:48.067Z,53.03
2017-11-16T18:11:15.679Z,52.20
2017-11-16T18:13:43.327Z,58.75
2017-11-16T18:16:10.927Z,55.67
2017-11-16T18:18:39.341Z,55.15
2017-11-16T18:21:07.712Z,56.47
2017-11-16T18:23:36.096Z,55.80
2017-11-16T18:26:04.459Z,54.72
2017-11-16T18:28:32.607Z,51.08
2017-11-16T18:31:00.247Z,55.70
2017-11-16T18:33:27.903Z,47.62
2017-11-16T18:35:55.524Z,56.13
2017-11-16T18:38:23.123Z,50.17
2017-11-16T18:40:50.789Z,55.67
2017-11-16T18:43:19.176Z,50.83
2017-11-16T18:45:47.532Z,52.00
2017-11-16T18:48:15.201Z,48.83
2017-11-16T18:50:42.820Z,60.35
2017-11-16T18:53:10.471Z,45.45
2017-11-16T18:55:38.069Z,61.83
2017-11-16T18:58:05.690Z,52.53
2017-11-16T19:00:34.099Z,51.28
2017-11-16T19:03:01.805Z,51.15
2017-11-16T19:05:29.524Z,55.03
2017-11-16T19:07:57.326Z,53.05
2017-11-16T19:10:25.053Z,54.25
2017-11-16T19:12:52.747Z,51.10
2017-11-16T19:15:20.627Z,55.17
2017-11-16T19:17:48.257Z,47.38
2017-11-16T19:20:16.736Z,55.53
2017-11-16T19:22:45.119Z,52.90
2017-11-16T19:25:12.746Z,62.85
2017-11-16T19:27:40.612Z,48.67
2017-11-16T19:30:08.309Z,58.30
2017-11-16T19:32:36.710Z,46.30
2017-11-16T19:35:06.061Z,51.80
2017-11-16T19:37:33.714Z,52.40
2017-11-16T19:40:01.369Z,54.63
2017-11-16T19:42:29.018Z,59.35
2017-11-16T19:44:56.634Z,58.28
2017-11-16T19:47:24.301Z,53.20
2017-11-16T19:49:51.891Z,54.17
2017-11-16T19:52:19.526Z,53.15
2017-11-16T19:54:47.169Z,47.78
2017-11-16T19:57:14.834Z,53.03
2017-11-16T19:59:42.497Z,60.03
2017-11-16T20:02:10.158Z,44.03
2017-11-16T20:04:38.067Z,53.90
2017-11-16T20:07:05.766Z,54.25
2017-11-16T20:09:34.181Z,51.78
2017-11-16T20:12:01.830Z,52.28
2017-11-16T20:14:30.285Z,58.03
2017-11-16T20:16:57.948Z,52.65
2017-11-16T20:19:25.624Z,54.90
2017-11-16T20:21:53.912Z,53.67
2017-11-16T20:24:21.693Z,53.42
2017-11-16T20:26:50.176Z,49.63
2017-11-16T20:29:18.635Z,47.08
2017-11-16T20:31:46.287Z,56.95
2017-11-16T20:34:13.916Z,65.85
2017-11-16T20:36:57.263Z,58.67
2017-11-16T20:39:26.922Z,57.13
2017-11-16T20:41:58.325Z,55.47
2017-11-16T20:44:31.618Z,52.45
2017-11-16T20:47:05.522Z,49.38
2017-11-16T20:49:36.130Z,51.78
2017-11-16T20:52:05.222Z,52.50
2017-11-16T20:54:33.551Z,50.78
2017-11-16T20:57:02.008Z,54.60
2017-11-16T20:59:30.417Z,55.53
2017-11-16T21:01:58.127Z,58.47
2017-11-16T21:04:25.853Z,55.35
2017-11-16T21:06:54.733Z,54.97
2017-11-16T21:12:17.708Z,53.17
2017-11-16T21:14:46.634Z,53.72
2017-11-16T21:17:14.402Z,52.33
2017-11-16T21:19:42.293Z,47.88
2017-11-16T21:22:09.999Z,56.20
2017-11-16T21:24:37.721Z,54.38
2017-11-16T21:27:05.499Z,58.22
2017-11-16T21:29:33.530Z,59.97
2017-11-16T21:32:01.219Z,50.33
2017-11-16T21:34:28.916Z,51.17
2017-11-16T21:36:56.657Z,62.10
2017-11-16T21:39:24.329Z,60.45
2017-11-16T21:41:51.993Z,66.50
2017-11-16T21:44:19.706Z,53.20
2017-11-16T21:46:47.466Z,57.67
2017-11-16T21:49:15.189Z,68.95
2017-11-16T21:51:43.976Z,56.00
2017-11-16T21:54:11.776Z,65.87
2017-11-16T21:56:39.696Z,53.63
2017-11-16T21:59:07.474Z,59.42
2017-11-16T22:01:35.186Z,59.20
2017-11-16T22:04:02.909Z,55.35
2017-11-16T22:06:30.651Z,65.18
2017-11-16T22:08:59.164Z,61.22
2017-11-16T22:11:26.883Z,57.08
2017-11-16T22:13:54.658Z,73.97
2017-11-16T22:16:22.691Z,58.13
2017-11-16T22:18:50.432Z,57.20
2017-11-16T22:21:18.937Z,58.67
2017-11-16T22:23:46.665Z,63.78
2017-11-16T22:26:15.169Z,56.40
2017-11-16T22:28:43.025Z,57.35
2017-11-16T22:31:10.717Z,61.20
2017-11-16T22:33:38.438Z,58.85
2017-11-16T22:36:06.946Z,54.70
2017-11-16T22:38:35.215Z,73.50
2017-11-16T22:41:02.883Z,68.78
2017-11-16T22:43:31.497Z,57.70
2017-11-16T22:45:59.241Z,57.62
2017-11-16T22:48:26.942Z,58.42
2017-11-16T22:50:54.610Z,62.45
2017-11-16T22:53:22.261Z,66.68
2017-11-16T22:55:50.728Z,59.70
2017-11-16T22:58:19.411Z,65.15
2017-11-16T23:00:47.159Z,57.97
2017-11-16T23:03:14.894Z,64.05
2017-11-16T23:05:43.008Z,63.67
2017-11-16T23:08:10.670Z,61.78
2017-11-16T23:10:39.134Z,61.30
2017-11-16T23:13:06.838Z,74.80
2017-11-16T23:15:34.540Z,60.47
2017-11-16T23:18:03.044Z,65.55
2017-11-16T23:20:30.718Z,67.28
2017-11-16T23:22:58.417Z,67.35
2017-11-16T23:25:26.110Z,58.97
2017-11-16T23:27:53.852Z,62.88
2017-11-16T23:30:21.542Z,63.25
2017-11-16T23:32:49.285Z,65.60
2017-11-16T23:35:17.079Z,73.65
2017-11-16T23:37:44.856Z,59.58
2017-11-16T23:40:12.545Z,58.90
2017-11-16T23:42:41.119Z,72.22
2017-11-16T23:45:08.882Z,61.42
2017-11-16T23:47:37.558Z,65.18
2017-11-16T23:50:05.972Z,62.75
2017-11-16T23:52:34.792Z,61.50
2017-11-16T23:55:02.439Z,64.00
2017-11-16T23:57:30.865Z,62.58
2017-11-16T23:59:58.526Z,73.28
